KFFM

Fergus Falls Municipal-Einar Mickelson Field Airport

Fergus Falls, Minnesota, USA
METAR KFFM 181955Z AUTO 21006KT 10SM SCT039 01/00 A2960 RMK AO2
Observed Flight Rules
Dec-18 @ 19:55 UTC (29 minutes ago) Visual Flight Rules
Wind Visibility Clouds
210° at 6 knots 10 miles
  • Scattered at 3,900' AGL
Temperatures Readings
Current 1°C / 34°F
Dewpoint 0°C / 32°F
Humidity 93%
Altimeter 29.6" Hg
Pressure 1002 hPa
Elevation 361
METAR KFFM 181955Z AUTO 21006KT 10SM SCT039 01/00 A2960 RMK AO2
Observed Flight Rules
Dec-18 @ 19:55 UTC
(29 minutes ago)
VFR
Wind Visibility
210° at 6 knots 10 miles
Clouds
  • Scattered at 3,900' AGL
Temperature Dewpoint
1°C / 34°F 0°C / 32°F
Humidity Altimeter Pressure
93% 29.6" Hg 1002 hPa